sensor_id;sensor_type;location;lat;lon;timestamp;P1;durP1;ratioP1;P2;durP2;ratioP2
53052;SDS011;38934;52.690;6.184;2022-08-02T00:01:36;6.88;;;3.80;;
53052;SDS011;38934;52.690;6.184;2022-08-02T00:04:02;8.63;;;4.45;;
53052;SDS011;38934;52.690;6.184;2022-08-02T00:06:28;8.55;;;4.03;;
53052;SDS011;38934;52.690;6.184;2022-08-02T00:08:54;6.82;;;4.45;;
53052;SDS011;38934;52.690;6.184;2022-08-02T00:11:20;11.25;;;4.55;;
53052;SDS011;38934;52.690;6.184;2022-08-02T00:13:45;9.35;;;4.43;;
53052;SDS011;38934;52.690;6.184;2022-08-02T00:16:11;10.82;;;4.55;;
53052;SDS011;38934;52.690;6.184;2022-08-02T00:18:37;9.50;;;4.55;;
53052;SDS011;38934;52.690;6.184;2022-08-02T00:21:03;8.57;;;4.50;;
53052;SDS011;38934;52.690;6.184;2022-08-02T00:23:29;8.63;;;4.40;;
53052;SDS011;38934;52.690;6.184;2022-08-02T00:25:54;6.93;;;4.22;;
53052;SDS011;38934;52.690;6.184;2022-08-02T00:28:21;9.85;;;4.47;;
53052;SDS011;38934;52.690;6.184;2022-08-02T00:30:46;6.97;;;3.88;;
53052;SDS011;38934;52.690;6.184;2022-08-02T00:33:12;9.45;;;4.20;;
53052;SDS011;38934;52.690;6.184;2022-08-02T00:35:38;7.57;;;4.18;;
53052;SDS011;38934;52.690;6.184;2022-08-02T00:38:03;8.07;;;3.70;;
53052;SDS011;38934;52.690;6.184;2022-08-02T00:40:29;7.88;;;4.30;;
53052;SDS011;38934;52.690;6.184;2022-08-02T00:43:06;10.10;;;3.88;;
53052;SDS011;38934;52.690;6.184;2022-08-02T00:45:36;7.75;;;4.10;;
53052;SDS011;38934;52.690;6.184;2022-08-02T00:48:04;10.60;;;4.68;;
53052;SDS011;38934;52.690;6.184;2022-08-02T00:50:31;7.25;;;4.05;;
53052;SDS011;38934;52.690;6.184;2022-08-02T00:52:57;9.90;;;4.47;;
53052;SDS011;38934;52.690;6.184;2022-08-02T00:55:23;7.50;;;3.90;;
53052;SDS011;38934;52.690;6.184;2022-08-02T00:57:49;9.63;;;4.63;;
53052;SDS011;38934;52.690;6.184;2022-08-02T01:00:15;7.75;;;4.13;;
53052;SDS011;38934;52.690;6.184;2022-08-02T01:02:41;9.82;;;4.05;;
53052;SDS011;38934;52.690;6.184;2022-08-02T01:05:07;8.30;;;4.50;;
53052;SDS011;38934;52.690;6.184;2022-08-02T01:07:33;8.25;;;4.53;;
53052;SDS011;38934;52.690;6.184;2022-08-02T01:09:58;10.57;;;4.97;;
53052;SDS011;38934;52.690;6.184;2022-08-02T01:12:25;9.55;;;4.88;;
53052;SDS011;38934;52.690;6.184;2022-08-02T01:14:51;12.18;;;4.55;;
53052;SDS011;38934;52.690;6.184;2022-08-02T01:17:29;10.48;;;4.38;;
53052;SDS011;38934;52.690;6.184;2022-08-02T01:20:08;9.45;;;4.13;;
53052;SDS011;38934;52.690;6.184;2022-08-02T01:31:14;7.43;;;4.13;;
53052;SDS011;38934;52.690;6.184;2022-08-02T01:34:29;8.68;;;4.43;;
53052;SDS011;38934;52.690;6.184;2022-08-02T01:36:47;8.85;;;4.15;;
53052;SDS011;38934;52.690;6.184;2022-08-02T01:39:20;12.57;;;4.93;;
53052;SDS011;38934;52.690;6.184;2022-08-02T01:41:49;13.45;;;5.35;;
53052;SDS011;38934;52.690;6.184;2022-08-02T01:44:17;12.77;;;5.15;;
53052;SDS011;38934;52.690;6.184;2022-08-02T01:46:45;10.20;;;5.43;;
53052;SDS011;38934;52.690;6.184;2022-08-02T01:49:14;9.77;;;5.60;;
53052;SDS011;38934;52.690;6.184;2022-08-02T01:51:43;9.32;;;5.35;;
53052;SDS011;38934;52.690;6.184;2022-08-02T01:54:30;8.50;;;4.93;;
53052;SDS011;38934;52.690;6.184;2022-08-02T01:56:58;11.75;;;5.57;;
53052;SDS011;38934;52.690;6.184;2022-08-02T01:59:26;10.98;;;6.07;;
53052;SDS011;38934;52.690;6.184;2022-08-02T02:01:56;9.30;;;5.30;;
53052;SDS011;38934;52.690;6.184;2022-08-02T02:04:23;11.70;;;6.18;;
53052;SDS011;38934;52.690;6.184;2022-08-02T02:06:52;12.73;;;5.55;;
53052;SDS011;38934;52.690;6.184;2022-08-02T02:09:19;13.48;;;6.00;;
53052;SDS011;38934;52.690;6.184;2022-08-02T02:11:46;7.85;;;4.90;;
53052;SDS011;38934;52.690;6.184;2022-08-02T02:14:13;9.30;;;4.97;;
53052;SDS011;38934;52.690;6.184;2022-08-02T02:16:42;11.00;;;6.00;;
53052;SDS011;38934;52.690;6.184;2022-08-02T02:19:10;9.02;;;5.70;;
53052;SDS011;38934;52.690;6.184;2022-08-02T02:21:40;10.95;;;5.07;;
53052;SDS011;38934;52.690;6.184;2022-08-02T02:24:06;9.60;;;5.13;;
53052;SDS011;38934;52.690;6.184;2022-08-02T02:26:32;11.48;;;5.80;;
53052;SDS011;38934;52.690;6.184;2022-08-02T02:29:00;10.27;;;5.82;;
53052;SDS011;38934;52.690;6.184;2022-08-02T02:31:28;12.18;;;6.18;;
53052;SDS011;38934;52.690;6.184;2022-08-02T02:34:00;9.52;;;5.63;;
53052;SDS011;38934;52.690;6.184;2022-08-02T02:36:28;11.48;;;6.10;;
53052;SDS011;38934;52.690;6.184;2022-08-02T02:38:55;9.00;;;5.47;;
53052;SDS011;38934;52.690;6.184;2022-08-02T02:41:23;10.52;;;5.45;;
53052;SDS011;38934;52.690;6.184;2022-08-02T02:43:52;13.25;;;6.60;;
53052;SDS011;38934;52.690;6.184;2022-08-02T02:46:19;12.98;;;6.63;;
53052;SDS011;38934;52.690;6.184;2022-08-02T02:48:46;15.13;;;5.78;;
53052;SDS011;38934;52.690;6.184;2022-08-02T02:51:14;11.13;;;5.45;;
53052;SDS011;38934;52.690;6.184;2022-08-02T02:53:40;8.45;;;5.32;;
53052;SDS011;38934;52.690;6.184;2022-08-02T02:56:07;9.43;;;5.68;;
53052;SDS011;38934;52.690;6.184;2022-08-02T02:58:33;10.85;;;6.35;;
53052;SDS011;38934;52.690;6.184;2022-08-02T03:00:59;10.18;;;6.30;;
53052;SDS011;38934;52.690;6.184;2022-08-02T03:03:43;9.32;;;5.40;;
53052;SDS011;38934;52.690;6.184;2022-08-02T03:06:09;10.77;;;5.88;;
53052;SDS011;38934;52.690;6.184;2022-08-02T03:08:35;9.13;;;5.00;;
53052;SDS011;38934;52.690;6.184;2022-08-02T03:11:01;10.57;;;5.50;;
53052;SDS011;38934;52.690;6.184;2022-08-02T03:13:27;10.73;;;5.63;;
53052;SDS011;38934;52.690;6.184;2022-08-02T03:15:53;8.20;;;5.38;;
53052;SDS011;38934;52.690;6.184;2022-08-02T03:21:14;11.27;;;5.90;;
53052;SDS011;38934;52.690;6.184;2022-08-02T03:23:40;12.70;;;5.50;;
53052;SDS011;38934;52.690;6.184;2022-08-02T03:26:07;11.95;;;5.95;;
53052;SDS011;38934;52.690;6.184;2022-08-02T03:28:33;9.52;;;5.65;;
53052;SDS011;38934;52.690;6.184;2022-08-02T03:31:00;14.13;;;5.78;;
53052;SDS011;38934;52.690;6.184;2022-08-02T03:33:26;11.35;;;6.20;;
53052;SDS011;38934;52.690;6.184;2022-08-02T03:35:54;12.32;;;5.78;;
53052;SDS011;38934;52.690;6.184;2022-08-02T03:38:22;12.88;;;6.22;;
53052;SDS011;38934;52.690;6.184;2022-08-02T03:40:49;7.68;;;5.35;;
53052;SDS011;38934;52.690;6.184;2022-08-02T03:43:15;11.13;;;5.70;;
53052;SDS011;38934;52.690;6.184;2022-08-02T03:45:44;11.48;;;5.90;;
53052;SDS011;38934;52.690;6.184;2022-08-02T03:48:14;10.00;;;5.95;;
53052;SDS011;38934;52.690;6.184;2022-08-02T03:50:41;7.25;;;5.70;;
53052;SDS011;38934;52.690;6.184;2022-08-02T03:53:07;10.60;;;5.50;;
53052;SDS011;38934;52.690;6.184;2022-08-02T03:55:33;9.60;;;5.68;;
53052;SDS011;38934;52.690;6.184;2022-08-02T03:58:00;10.15;;;5.32;;
53052;SDS011;38934;52.690;6.184;2022-08-02T04:00:26;8.73;;;5.85;;
53052;SDS011;38934;52.690;6.184;2022-08-02T04:02:52;8.38;;;5.40;;
53052;SDS011;38934;52.690;6.184;2022-08-02T04:05:17;13.00;;;5.85;;
53052;SDS011;38934;52.690;6.184;2022-08-02T04:07:44;10.48;;;5.50;;
53052;SDS011;38934;52.690;6.184;2022-08-02T04:10:10;8.98;;;4.97;;
53052;SDS011;38934;52.690;6.184;2022-08-02T04:12:36;9.25;;;5.45;;
53052;SDS011;38934;52.690;6.184;2022-08-02T04:15:05;9.32;;;5.15;;
53052;SDS011;38934;52.690;6.184;2022-08-02T04:17:34;10.27;;;5.82;;
53052;SDS011;38934;52.690;6.184;2022-08-02T04:20:07;10.50;;;5.50;;
53052;SDS011;38934;52.690;6.184;2022-08-02T04:22:39;9.15;;;5.90;;
53052;SDS011;38934;52.690;6.184;2022-08-02T04:25:11;11.80;;;5.30;;
53052;SDS011;38934;52.690;6.184;2022-08-02T04:27:38;11.25;;;5.93;;
53052;SDS011;38934;52.690;6.184;2022-08-02T04:30:05;12.00;;;5.38;;
53052;SDS011;38934;52.690;6.184;2022-08-02T04:32:31;8.85;;;5.35;;
53052;SDS011;38934;52.690;6.184;2022-08-02T04:34:57;12.35;;;5.35;;
53052;SDS011;38934;52.690;6.184;2022-08-02T04:37:24;11.02;;;5.78;;
53052;SDS011;38934;52.690;6.184;2022-08-02T04:39:50;13.35;;;5.85;;
53052;SDS011;38934;52.690;6.184;2022-08-02T04:42:22;8.93;;;5.40;;
53052;SDS011;38934;52.690;6.184;2022-08-02T04:44:49;12.07;;;5.57;;
53052;SDS011;38934;52.690;6.184;2022-08-02T04:47:16;11.30;;;5.00;;
53052;SDS011;38934;52.690;6.184;2022-08-02T04:49:42;9.88;;;5.95;;
53052;SDS011;38934;52.690;6.184;2022-08-02T04:52:08;9.05;;;5.72;;
53052;SDS011;38934;52.690;6.184;2022-08-02T04:54:33;10.15;;;6.10;;
53052;SDS011;38934;52.690;6.184;2022-08-02T04:56:59;9.90;;;5.13;;
53052;SDS011;38934;52.690;6.184;2022-08-02T04:59:25;8.18;;;5.72;;
53052;SDS011;38934;52.690;6.184;2022-08-02T05:01:50;8.85;;;5.07;;
53052;SDS011;38934;52.690;6.184;2022-08-02T05:04:16;11.50;;;5.60;;
53052;SDS011;38934;52.690;6.184;2022-08-02T05:06:42;8.05;;;5.00;;
53052;SDS011;38934;52.690;6.184;2022-08-02T05:09:08;8.18;;;5.10;;
53052;SDS011;38934;52.690;6.184;2022-08-02T05:11:33;11.80;;;5.72;;
53052;SDS011;38934;52.690;6.184;2022-08-02T05:13:59;8.05;;;5.20;;
53052;SDS011;38934;52.690;6.184;2022-08-02T05:16:25;9.75;;;5.60;;
53052;SDS011;38934;52.690;6.184;2022-08-02T05:18:51;9.00;;;5.00;;
53052;SDS011;38934;52.690;6.184;2022-08-02T05:21:16;9.20;;;4.80;;
53052;SDS011;38934;52.690;6.184;2022-08-02T05:23:42;11.32;;;4.72;;
53052;SDS011;38934;52.690;6.184;2022-08-02T05:26:08;11.30;;;5.32;;
53052;SDS011;38934;52.690;6.184;2022-08-02T05:28:33;11.07;;;5.18;;
53052;SDS011;38934;52.690;6.184;2022-08-02T05:30:59;8.70;;;4.60;;
53052;SDS011;38934;52.690;6.184;2022-08-02T05:33:25;9.60;;;5.00;;
53052;SDS011;38934;52.690;6.184;2022-08-02T05:35:50;9.63;;;4.95;;
53052;SDS011;38934;52.690;6.184;2022-08-02T05:38:16;9.88;;;5.28;;
53052;SDS011;38934;52.690;6.184;2022-08-02T05:40:41;8.13;;;4.65;;
53052;SDS011;38934;52.690;6.184;2022-08-02T05:43:13;6.75;;;4.47;;
53052;SDS011;38934;52.690;6.184;2022-08-02T05:45:39;9.50;;;4.78;;
53052;SDS011;38934;52.690;6.184;2022-08-02T05:48:06;7.15;;;4.68;;
53052;SDS011;38934;52.690;6.184;2022-08-02T05:50:33;9.65;;;4.53;;
53052;SDS011;38934;52.690;6.184;2022-08-02T05:53:03;12.45;;;4.90;;
53052;SDS011;38934;52.690;6.184;2022-08-02T05:55:41;13.63;;;5.20;;
53052;SDS011;38934;52.690;6.184;2022-08-02T05:58:30;8.65;;;5.10;;
53052;SDS011;38934;52.690;6.184;2022-08-02T06:01:02;8.30;;;4.95;;
53052;SDS011;38934;52.690;6.184;2022-08-02T06:03:35;10.15;;;4.90;;
53052;SDS011;38934;52.690;6.184;2022-08-02T06:06:14;7.80;;;5.00;;
53052;SDS011;38934;52.690;6.184;2022-08-02T06:08:42;10.70;;;5.20;;
53052;SDS011;38934;52.690;6.184;2022-08-02T06:11:11;7.82;;;4.93;;
53052;SDS011;38934;52.690;6.184;2022-08-02T06:13:42;13.23;;;5.22;;
53052;SDS011;38934;52.690;6.184;2022-08-02T06:16:09;9.07;;;5.07;;
53052;SDS011;38934;52.690;6.184;2022-08-02T06:18:35;7.70;;;4.70;;
53052;SDS011;38934;52.690;6.184;2022-08-02T06:21:02;9.45;;;4.97;;
53052;SDS011;38934;52.690;6.184;2022-08-02T06:23:29;10.63;;;5.75;;
53052;SDS011;38934;52.690;6.184;2022-08-02T06:25:56;8.20;;;4.40;;
53052;SDS011;38934;52.690;6.184;2022-08-02T06:28:23;7.07;;;4.43;;
53052;SDS011;38934;52.690;6.184;2022-08-02T06:30:49;8.02;;;4.20;;
53052;SDS011;38934;52.690;6.184;2022-08-02T06:33:15;9.48;;;4.30;;
53052;SDS011;38934;52.690;6.184;2022-08-02T06:35:45;10.77;;;4.50;;
53052;SDS011;38934;52.690;6.184;2022-08-02T06:38:17;9.70;;;4.72;;
53052;SDS011;38934;52.690;6.184;2022-08-02T06:40:54;9.13;;;4.60;;
53052;SDS011;38934;52.690;6.184;2022-08-02T06:43:32;8.13;;;4.10;;
53052;SDS011;38934;52.690;6.184;2022-08-02T06:46:05;5.55;;;3.97;;
53052;SDS011;38934;52.690;6.184;2022-08-02T06:48:31;7.18;;;4.00;;
53052;SDS011;38934;52.690;6.184;2022-08-02T06:51:00;7.45;;;4.47;;
53052;SDS011;38934;52.690;6.184;2022-08-02T06:53:26;9.10;;;4.07;;
53052;SDS011;38934;52.690;6.184;2022-08-02T06:55:51;6.45;;;3.90;;
53052;SDS011;38934;52.690;6.184;2022-08-02T06:58:17;8.50;;;3.67;;
53052;SDS011;38934;52.690;6.184;2022-08-02T07:00:43;7.03;;;3.22;;
53052;SDS011;38934;52.690;6.184;2022-08-02T07:03:08;6.60;;;3.45;;
53052;SDS011;38934;52.690;6.184;2022-08-02T07:05:34;6.13;;;3.22;;
53052;SDS011;38934;52.690;6.184;2022-08-02T07:08:00;4.70;;;3.15;;
53052;SDS011;38934;52.690;6.184;2022-08-02T07:10:26;6.28;;;3.28;;
53052;SDS011;38934;52.690;6.184;2022-08-02T07:12:52;8.90;;;3.13;;
53052;SDS011;38934;52.690;6.184;2022-08-02T07:15:18;6.00;;;3.03;;
53052;SDS011;38934;52.690;6.184;2022-08-02T07:17:44;4.57;;;3.45;;
53052;SDS011;38934;52.690;6.184;2022-08-02T07:20:09;6.50;;;3.20;;
53052;SDS011;38934;52.690;6.184;2022-08-02T07:22:35;5.50;;;3.38;;
53052;SDS011;38934;52.690;6.184;2022-08-02T07:25:00;5.78;;;3.03;;
53052;SDS011;38934;52.690;6.184;2022-08-02T07:27:27;5.95;;;3.15;;
53052;SDS011;38934;52.690;6.184;2022-08-02T07:29:53;6.43;;;3.10;;
53052;SDS011;38934;52.690;6.184;2022-08-02T07:32:20;6.93;;;2.90;;
53052;SDS011;38934;52.690;6.184;2022-08-02T07:34:47;6.32;;;3.13;;
53052;SDS011;38934;52.690;6.184;2022-08-02T07:37:13;3.97;;;2.88;;
53052;SDS011;38934;52.690;6.184;2022-08-02T07:39:39;7.45;;;3.10;;
53052;SDS011;38934;52.690;6.184;2022-08-02T07:42:05;6.97;;;3.95;;
53052;SDS011;38934;52.690;6.184;2022-08-02T07:44:30;6.80;;;3.40;;
53052;SDS011;38934;52.690;6.184;2022-08-02T07:47:02;4.15;;;3.05;;
53052;SDS011;38934;52.690;6.184;2022-08-02T07:49:28;6.07;;;2.90;;
53052;SDS011;38934;52.690;6.184;2022-08-02T07:51:54;3.83;;;2.70;;
53052;SDS011;38934;52.690;6.184;2022-08-02T07:54:21;4.25;;;3.05;;
53052;SDS011;38934;52.690;6.184;2022-08-02T07:56:47;6.65;;;2.95;;
53052;SDS011;38934;52.690;6.184;2022-08-02T07:59:12;6.13;;;2.50;;
53052;SDS011;38934;52.690;6.184;2022-08-02T08:01:38;5.55;;;3.00;;
53052;SDS011;38934;52.690;6.184;2022-08-02T08:04:04;3.28;;;2.22;;
53052;SDS011;38934;52.690;6.184;2022-08-02T08:06:30;5.82;;;2.60;;
53052;SDS011;38934;52.690;6.184;2022-08-02T08:08:56;6.72;;;2.70;;
53052;SDS011;38934;52.690;6.184;2022-08-02T08:11:22;5.38;;;2.40;;
53052;SDS011;38934;52.690;6.184;2022-08-02T08:13:48;5.00;;;2.92;;
53052;SDS011;38934;52.690;6.184;2022-08-02T08:16:14;4.20;;;2.28;;
53052;SDS011;38934;52.690;6.184;2022-08-02T08:18:40;3.63;;;2.03;;
53052;SDS011;38934;52.690;6.184;2022-08-02T08:21:05;7.43;;;2.85;;
53052;SDS011;38934;52.690;6.184;2022-08-02T08:23:31;3.97;;;2.28;;
53052;SDS011;38934;52.690;6.184;2022-08-02T08:25:57;5.45;;;2.75;;
53052;SDS011;38934;52.690;6.184;2022-08-02T08:28:22;6.55;;;2.90;;
53052;SDS011;38934;52.690;6.184;2022-08-02T08:30:48;5.53;;;2.85;;
53052;SDS011;38934;52.690;6.184;2022-08-02T08:33:13;5.78;;;2.70;;
53052;SDS011;38934;52.690;6.184;2022-08-02T08:35:40;8.48;;;2.72;;
53052;SDS011;38934;52.690;6.184;2022-08-02T08:38:05;5.30;;;2.42;;
53052;SDS011;38934;52.690;6.184;2022-08-02T08:40:32;3.95;;;2.40;;
53052;SDS011;38934;52.690;6.184;2022-08-02T08:42:58;6.47;;;2.38;;
53052;SDS011;38934;52.690;6.184;2022-08-02T08:45:24;4.75;;;2.40;;
53052;SDS011;38934;52.690;6.184;2022-08-02T08:47:51;3.65;;;2.10;;
53052;SDS011;38934;52.690;6.184;2022-08-02T08:50:20;5.85;;;2.20;;
53052;SDS011;38934;52.690;6.184;2022-08-02T08:53:02;4.50;;;1.90;;
53052;SDS011;38934;52.690;6.184;2022-08-02T08:55:30;3.80;;;1.98;;
53052;SDS011;38934;52.690;6.184;2022-08-02T08:57:57;5.07;;;2.30;;
53052;SDS011;38934;52.690;6.184;2022-08-02T09:00:24;4.55;;;1.88;;
53052;SDS011;38934;52.690;6.184;2022-08-02T09:02:51;3.75;;;2.10;;
53052;SDS011;38934;52.690;6.184;2022-08-02T09:05:17;5.68;;;2.45;;
53052;SDS011;38934;52.690;6.184;2022-08-02T09:07:46;6.03;;;2.55;;
53052;SDS011;38934;52.690;6.184;2022-08-02T09:10:32;3.63;;;2.17;;
53052;SDS011;38934;52.690;6.184;2022-08-02T09:15:36;4.22;;;1.88;;
53052;SDS011;38934;52.690;6.184;2022-08-02T09:18:03;5.85;;;2.33;;
53052;SDS011;38934;52.690;6.184;2022-08-02T09:20:31;4.47;;;2.28;;
53052;SDS011;38934;52.690;6.184;2022-08-02T09:23:14;4.97;;;2.22;;
53052;SDS011;38934;52.690;6.184;2022-08-02T09:25:40;3.80;;;1.95;;
53052;SDS011;38934;52.690;6.184;2022-08-02T09:28:05;3.13;;;2.03;;
53052;SDS011;38934;52.690;6.184;2022-08-02T09:30:31;4.85;;;2.20;;
53052;SDS011;38934;52.690;6.184;2022-08-02T09:33:07;5.20;;;2.10;;
53052;SDS011;38934;52.690;6.184;2022-08-02T09:35:36;8.75;;;2.92;;
53052;SDS011;38934;52.690;6.184;2022-08-02T09:38:08;4.43;;;2.40;;
53052;SDS011;38934;52.690;6.184;2022-08-02T09:40:39;3.78;;;2.03;;
53052;SDS011;38934;52.690;6.184;2022-08-02T09:43:06;3.78;;;2.47;;
53052;SDS011;38934;52.690;6.184;2022-08-02T09:45:32;4.35;;;2.22;;
53052;SDS011;38934;52.690;6.184;2022-08-02T09:48:00;6.45;;;2.10;;
53052;SDS011;38934;52.690;6.184;2022-08-02T09:50:33;3.95;;;2.10;;
53052;SDS011;38934;52.690;6.184;2022-08-02T09:53:00;5.05;;;2.58;;
53052;SDS011;38934;52.690;6.184;2022-08-02T09:55:27;4.03;;;2.20;;
53052;SDS011;38934;52.690;6.184;2022-08-02T09:57:53;3.30;;;2.00;;
53052;SDS011;38934;52.690;6.184;2022-08-02T10:00:18;4.70;;;2.28;;
53052;SDS011;38934;52.690;6.184;2022-08-02T10:05:29;3.15;;;2.10;;
53052;SDS011;38934;52.690;6.184;2022-08-02T10:07:55;4.43;;;2.42;;
53052;SDS011;38934;52.690;6.184;2022-08-02T10:10:22;7.35;;;2.50;;
53052;SDS011;38934;52.690;6.184;2022-08-02T10:12:47;4.00;;;2.20;;
53052;SDS011;38934;52.690;6.184;2022-08-02T10:15:14;2.60;;;2.20;;
53052;SDS011;38934;52.690;6.184;2022-08-02T10:17:41;4.03;;;2.40;;
53052;SDS011;38934;52.690;6.184;2022-08-02T10:20:08;3.70;;;2.13;;
53052;SDS011;38934;52.690;6.184;2022-08-02T10:22:34;4.30;;;2.28;;
53052;SDS011;38934;52.690;6.184;2022-08-02T10:25:03;4.35;;;2.30;;
53052;SDS011;38934;52.690;6.184;2022-08-02T10:27:29;2.05;;;1.60;;
53052;SDS011;38934;52.690;6.184;2022-08-02T10:29:56;1.98;;;1.50;;
53052;SDS011;38934;52.690;6.184;2022-08-02T10:32:37;1.95;;;1.50;;
53052;SDS011;38934;52.690;6.184;2022-08-02T10:35:12;1.73;;;1.52;;
53052;SDS011;38934;52.690;6.184;2022-08-02T10:37:40;2.95;;;1.75;;
53052;SDS011;38934;52.690;6.184;2022-08-02T10:40:10;2.25;;;1.70;;
53052;SDS011;38934;52.690;6.184;2022-08-02T10:45:14;3.35;;;2.10;;
53052;SDS011;38934;52.690;6.184;2022-08-02T10:55:45;4.03;;;2.88;;
53052;SDS011;38934;52.690;6.184;2022-08-02T10:58:20;4.65;;;3.30;;
53052;SDS011;38934;52.690;6.184;2022-08-02T11:00:48;6.93;;;3.10;;
53052;SDS011;38934;52.690;6.184;2022-08-02T11:06:10;4.60;;;3.10;;
53052;SDS011;38934;52.690;6.184;2022-08-02T11:08:37;5.72;;;3.13;;
53052;SDS011;38934;52.690;6.184;2022-08-02T11:19:18;5.95;;;3.40;;
53052;SDS011;38934;52.690;6.184;2022-08-02T11:21:58;4.60;;;3.40;;
53052;SDS011;38934;52.690;6.184;2022-08-02T11:24:29;5.72;;;3.38;;
53052;SDS011;38934;52.690;6.184;2022-08-02T11:26:57;6.38;;;3.22;;
53052;SDS011;38934;52.690;6.184;2022-08-02T11:29:36;4.63;;;2.95;;
53052;SDS011;38934;52.690;6.184;2022-08-02T11:32:03;6.05;;;3.65;;
53052;SDS011;38934;52.690;6.184;2022-08-02T11:34:30;4.60;;;3.00;;
53052;SDS011;38934;52.690;6.184;2022-08-02T11:36:57;4.43;;;2.92;;
53052;SDS011;38934;52.690;6.184;2022-08-02T11:39:23;5.28;;;3.05;;
53052;SDS011;38934;52.690;6.184;2022-08-02T11:44:23;2.83;;;2.13;;
53052;SDS011;38934;52.690;6.184;2022-08-02T11:46:55;2.63;;;2.22;;
53052;SDS011;38934;52.690;6.184;2022-08-02T11:49:22;2.95;;;2.10;;
53052;SDS011;38934;52.690;6.184;2022-08-02T11:52:01;3.60;;;2.33;;
53052;SDS011;38934;52.690;6.184;2022-08-02T11:54:31;2.80;;;2.03;;
53052;SDS011;38934;52.690;6.184;2022-08-02T11:57:09;3.92;;;2.35;;
53052;SDS011;38934;52.690;6.184;2022-08-02T11:59:37;3.22;;;2.13;;
53052;SDS011;38934;52.690;6.184;2022-08-02T12:02:05;4.63;;;2.40;;
53052;SDS011;38934;52.690;6.184;2022-08-02T12:04:31;4.93;;;2.63;;
53052;SDS011;38934;52.690;6.184;2022-08-02T12:06:58;3.38;;;2.88;;
53052;SDS011;38934;52.690;6.184;2022-08-02T12:09:27;4.85;;;2.58;;
53052;SDS011;38934;52.690;6.184;2022-08-02T12:11:54;3.70;;;2.50;;
53052;SDS011;38934;52.690;6.184;2022-08-02T12:14:21;4.18;;;2.63;;
53052;SDS011;38934;52.690;6.184;2022-08-02T12:16:47;4.75;;;2.50;;
53052;SDS011;38934;52.690;6.184;2022-08-02T12:19:33;4.78;;;2.58;;
53052;SDS011;38934;52.690;6.184;2022-08-02T12:24:50;4.13;;;2.85;;
53052;SDS011;38934;52.690;6.184;2022-08-02T12:27:37;4.40;;;3.00;;
53052;SDS011;38934;52.690;6.184;2022-08-02T12:32:37;4.05;;;2.85;;
53052;SDS011;38934;52.690;6.184;2022-08-02T12:35:05;8.73;;;3.75;;
53052;SDS011;38934;52.690;6.184;2022-08-02T12:37:31;5.35;;;2.90;;
53052;SDS011;38934;52.690;6.184;2022-08-02T12:39:57;4.97;;;3.03;;
53052;SDS011;38934;52.690;6.184;2022-08-02T12:42:23;4.43;;;3.33;;
53052;SDS011;38934;52.690;6.184;2022-08-02T12:44:58;6.32;;;3.47;;
53052;SDS011;38934;52.690;6.184;2022-08-02T12:47:24;6.85;;;4.03;;
53052;SDS011;38934;52.690;6.184;2022-08-02T12:50:09;4.95;;;3.80;;
53052;SDS011;38934;52.690;6.184;2022-08-02T12:52:37;5.18;;;3.47;;
53052;SDS011;38934;52.690;6.184;2022-08-02T12:55:22;5.03;;;3.72;;
53052;SDS011;38934;52.690;6.184;2022-08-02T12:57:54;4.53;;;3.33;;
53052;SDS011;38934;52.690;6.184;2022-08-02T13:00:28;6.78;;;4.85;;
53052;SDS011;38934;52.690;6.184;2022-08-02T13:02:56;8.32;;;4.30;;
53052;SDS011;38934;52.690;6.184;2022-08-02T13:05:22;6.38;;;4.47;;
53052;SDS011;38934;52.690;6.184;2022-08-02T13:07:48;9.98;;;4.85;;
53052;SDS011;38934;52.690;6.184;2022-08-02T13:10:15;6.38;;;4.25;;
53052;SDS011;38934;52.690;6.184;2022-08-02T13:12:41;7.40;;;4.78;;
53052;SDS011;38934;52.690;6.184;2022-08-02T13:15:07;5.25;;;4.20;;
53052;SDS011;38934;52.690;6.184;2022-08-02T13:17:33;6.57;;;4.20;;
53052;SDS011;38934;52.690;6.184;2022-08-02T13:19:59;7.10;;;5.15;;
53052;SDS011;38934;52.690;6.184;2022-08-02T13:22:24;6.00;;;4.50;;
53052;SDS011;38934;52.690;6.184;2022-08-02T13:24:50;6.38;;;4.70;;
53052;SDS011;38934;52.690;6.184;2022-08-02T13:27:16;6.10;;;4.45;;
53052;SDS011;38934;52.690;6.184;2022-08-02T13:29:42;5.20;;;4.30;;
53052;SDS011;38934;52.690;6.184;2022-08-02T13:32:08;5.38;;;4.05;;
53052;SDS011;38934;52.690;6.184;2022-08-02T13:34:34;6.38;;;4.10;;
53052;SDS011;38934;52.690;6.184;2022-08-02T13:37:00;7.78;;;4.13;;
53052;SDS011;38934;52.690;6.184;2022-08-02T13:39:26;5.90;;;4.32;;
53052;SDS011;38934;52.690;6.184;2022-08-02T13:41:51;7.90;;;3.92;;
53052;SDS011;38934;52.690;6.184;2022-08-02T13:44:17;4.70;;;3.63;;
53052;SDS011;38934;52.690;6.184;2022-08-02T13:46:43;5.07;;;3.30;;
53052;SDS011;38934;52.690;6.184;2022-08-02T13:49:09;3.83;;;3.08;;
53052;SDS011;38934;52.690;6.184;2022-08-02T13:51:34;4.88;;;3.42;;
53052;SDS011;38934;52.690;6.184;2022-08-02T13:54:00;4.18;;;3.40;;
53052;SDS011;38934;52.690;6.184;2022-08-02T13:56:25;4.15;;;3.20;;
53052;SDS011;38934;52.690;6.184;2022-08-02T13:58:51;4.50;;;3.03;;
53052;SDS011;38934;52.690;6.184;2022-08-02T14:01:19;3.88;;;2.60;;
53052;SDS011;38934;52.690;6.184;2022-08-02T14:03:44;4.07;;;2.40;;
53052;SDS011;38934;52.690;6.184;2022-08-02T14:06:10;2.97;;;2.55;;
53052;SDS011;38934;52.690;6.184;2022-08-02T14:08:36;3.67;;;2.80;;
53052;SDS011;38934;52.690;6.184;2022-08-02T14:11:02;3.35;;;2.30;;
53052;SDS011;38934;52.690;6.184;2022-08-02T14:13:28;4.13;;;2.53;;
53052;SDS011;38934;52.690;6.184;2022-08-02T14:15:54;3.50;;;2.63;;
53052;SDS011;38934;52.690;6.184;2022-08-02T14:18:20;5.50;;;2.58;;
53052;SDS011;38934;52.690;6.184;2022-08-02T14:20:46;3.60;;;2.90;;
53052;SDS011;38934;52.690;6.184;2022-08-02T14:23:12;5.25;;;2.90;;
53052;SDS011;38934;52.690;6.184;2022-08-02T14:25:38;2.92;;;2.28;;
53052;SDS011;38934;52.690;6.184;2022-08-02T14:28:04;3.75;;;2.40;;
53052;SDS011;38934;52.690;6.184;2022-08-02T14:30:30;2.90;;;2.22;;
53052;SDS011;38934;52.690;6.184;2022-08-02T14:32:55;2.25;;;1.95;;
53052;SDS011;38934;52.690;6.184;2022-08-02T14:35:21;3.47;;;1.98;;
53052;SDS011;38934;52.690;6.184;2022-08-02T14:37:47;4.30;;;1.80;;
53052;SDS011;38934;52.690;6.184;2022-08-02T14:40:12;3.90;;;1.92;;
53052;SDS011;38934;52.690;6.184;2022-08-02T14:42:38;5.38;;;1.92;;
53052;SDS011;38934;52.690;6.184;2022-08-02T14:45:04;2.53;;;1.90;;
53052;SDS011;38934;52.690;6.184;2022-08-02T14:47:30;2.42;;;1.80;;
53052;SDS011;38934;52.690;6.184;2022-08-02T14:49:56;2.35;;;1.63;;
53052;SDS011;38934;52.690;6.184;2022-08-02T14:52:21;3.83;;;1.80;;
53052;SDS011;38934;52.690;6.184;2022-08-02T14:54:47;4.60;;;1.90;;
53052;SDS011;38934;52.690;6.184;2022-08-02T14:57:13;2.53;;;1.85;;
53052;SDS011;38934;52.690;6.184;2022-08-02T14:59:39;2.13;;;1.75;;
53052;SDS011;38934;52.690;6.184;2022-08-02T15:02:04;2.65;;;1.70;;
53052;SDS011;38934;52.690;6.184;2022-08-02T15:04:30;2.95;;;1.65;;
53052;SDS011;38934;52.690;6.184;2022-08-02T15:06:57;2.00;;;1.48;;
53052;SDS011;38934;52.690;6.184;2022-08-02T15:09:23;4.55;;;1.90;;
53052;SDS011;38934;52.690;6.184;2022-08-02T15:11:50;4.60;;;1.73;;
53052;SDS011;38934;52.690;6.184;2022-08-02T15:14:15;4.25;;;1.70;;
53052;SDS011;38934;52.690;6.184;2022-08-02T15:16:41;1.67;;;1.58;;
53052;SDS011;38934;52.690;6.184;2022-08-02T15:19:07;1.67;;;1.50;;
53052;SDS011;38934;52.690;6.184;2022-08-02T15:21:32;2.65;;;1.65;;
53052;SDS011;38934;52.690;6.184;2022-08-02T15:23:58;1.80;;;1.55;;
53052;SDS011;38934;52.690;6.184;2022-08-02T15:26:24;1.70;;;1.60;;
53052;SDS011;38934;52.690;6.184;2022-08-02T15:28:49;3.63;;;1.70;;
53052;SDS011;38934;52.690;6.184;2022-08-02T15:31:15;2.30;;;1.85;;
53052;SDS011;38934;52.690;6.184;2022-08-02T15:33:41;3.38;;;1.70;;
53052;SDS011;38934;52.690;6.184;2022-08-02T15:36:08;2.50;;;1.80;;